Observation data for Silverton on 01/13/2021      Previous  Date  Next       Current Mesonet Observations  Soil Data  Daily Summary Page  Observations in Plain Language
KSVS 130600Z 25010KT M02/M03 A3014 RMK A01 T10211031  RH  093%=      5-min Rain = 0
KSVS 130605Z 25011KT M02/M03 A3014 RMK A01 T10191029  RH  094%=      5-min Rain = 0
KSVS 130610Z 25011KT M02/M03 A3014 RMK A01 T10171028  RH  093%=      5-min Rain = 0
KSVS 130615Z 25011KT M02/M03 A3014 RMK A01 T10171029  RH  092%=      5-min Rain = 0
KSVS 130620Z 25011KT M02/M03 A3014 RMK A01 T10181030  RH  092%=      5-min Rain = 0
KSVS 130625Z 26011KT M02/M03 A3013 RMK A01 T10181030  RH  093%=      5-min Rain = 0
KSVS 130630Z 26011KT M02/M03 A3013 RMK A01 T10181030  RH  092%=      5-min Rain = 0
KSVS 130635Z 26011KT M02/M03 A3014 RMK A01 T10161029  RH  092%=      5-min Rain = 0
KSVS 130640Z 26012KT M01/M03 A3014 RMK A01 T10141028  RH  091%=      5-min Rain = 0
KSVS 130645Z 25012KT M01/M03 A3013 RMK A01 T10141028  RH  090%=      5-min Rain = 0
KSVS 130650Z 25012KT M01/M03 A3013 RMK A01 T10141029  RH  090%=      5-min Rain = 0
KSVS 130655Z 25012KT M01/M03 A3013 RMK A01 T10141029  RH  090%=      5-min Rain = 0
KSVS 130700Z 26013KT M01/M03 A3013 RMK A01 T10111027  RH  089%=      5-min Rain = 0
KSVS 130705Z 26013KT M01/M03 A3013 RMK A01 T10081027  RH  088%=      5-min Rain = 0
KSVS 130710Z 26012KT M01/M03 A3013 RMK A01 T10101029  RH  088%=      5-min Rain = 0
KSVS 130715Z 26011KT M01/M03 A3013 RMK A01 T10111031  RH  087%=      5-min Rain = 0
KSVS 130720Z 26012KT M01/M03 A3013 RMK A01 T10121032  RH  087%=      5-min Rain = 0
KSVS 130725Z 26013KT M01/M03 A3013 RMK A01 T10111032  RH  086%=      5-min Rain = 0
KSVS 130730Z 26014KT M01/M03 A3013 RMK A01 T10111032  RH  086%=      5-min Rain = 0
KSVS 130735Z 26013KT M01/M03 A3013 RMK A01 T10101032  RH  085%=      5-min Rain = 0
KSVS 130740Z 26014KT M01/M03 A3013 RMK A01 T10091032  RH  085%=      5-min Rain = 0
KSVS 130745Z 26013KT M01/M03 A3013 RMK A01 T10091032  RH  085%=      5-min Rain = 0
KSVS 130750Z 26012KT M01/M03 A3013 RMK A01 T10091032  RH  085%=      5-min Rain = 0
KSVS 130755Z 26013KT M01/M03 A3013 RMK A01 T10111033  RH  085%=      5-min Rain = 0
KSVS 130800Z 26012KT M02/M04 A3013 RMK A01 T10151036  RH  086%=      5-min Rain = 0
KSVS 130805Z 26011KT M02/M04 A3013 RMK A01 T10181037  RH  087%=      5-min Rain = 0
KSVS 130810Z 26012KT M02/M04 A3013 RMK A01 T10191038  RH  087%=      5-min Rain = 0
KSVS 130815Z 26013KT M02/M04 A3013 RMK A01 T10171037  RH  086%=      5-min Rain = 0
KSVS 130820Z 26012KT M02/M04 A3013 RMK A01 T10171038  RH  086%=      5-min Rain = 0
KSVS 130825Z 26012KT M02/M04 A3013 RMK A01 T10161037  RH  086%=      5-min Rain = 0
KSVS 130830Z 26012KT M02/M04 A3012 RMK A01 T10151037  RH  086%=      5-min Rain = 0
KSVS 130835Z 26012KT M01/M04 A3012 RMK A01 T10141037  RH  085%=      5-min Rain = 0
KSVS 130840Z 26012KT M02/M04 A3012 RMK A01 T10151038  RH  085%=      5-min Rain = 0
KSVS 130845Z 26011KT M02/M04 A3012 RMK A01 T10151038  RH  085%=      5-min Rain = 0
KSVS 130850Z 27011KT M02/M04 A3012 RMK A01 T10161039  RH  084%=      5-min Rain = 0
KSVS 130855Z 27011KT M02/M04 A3012 RMK A01 T10171040  RH  085%=      5-min Rain = 0
KSVS 130900Z 27010KT M02/M04 A3012 RMK A01 T10181041  RH  085%=      5-min Rain = 0
KSVS 130905Z 26012KT M02/M04 A3012 RMK A01 T10151040  RH  083%=      5-min Rain = 0
KSVS 130910Z 26013KT M01/M04 A3011 RMK A01 T10141041  RH  082%=      5-min Rain = 0
KSVS 130915Z 26013KT M02/M04 A3011 RMK A01 T10171043  RH  083%=      5-min Rain = 0
KSVS 130920Z 25013KT M02/M04 A3011 RMK A01 T10151042  RH  082%=      5-min Rain = 0
KSVS 130925Z 26013KT M02/M04 A3011 RMK A01 T10171044  RH  082%=      5-min Rain = 0
KSVS 130930Z 25012KT M02/M04 A3011 RMK A01 T10181044  RH  083%=      5-min Rain = 0
KSVS 130935Z 25012KT M02/M05 A301 RMK A01 T10181045  RH  082%=      5-min Rain = 0
KSVS 130940Z 25012KT M02/M05 A301 RMK A01 T10191046  RH  083%=      5-min Rain = 0
KSVS 130945Z 25012KT M02/M05 A301 RMK A01 T10191045  RH  083%=      5-min Rain = 0
KSVS 130950Z 25012KT M02/M05 A3009 RMK A01 T10211046  RH  083%=      5-min Rain = 0
KSVS 130955Z 25013KT M02/M05 A3009 RMK A01 T10201045  RH  083%=      5-min Rain = 0
KSVS 131000Z 25015KT M02/M04 A3008 RMK A01 T10151044  RH  081%=      5-min Rain = 0
KSVS 131005Z 25014KT M01/M04 A3008 RMK A01 T10111043  RH  079%=      5-min Rain = 0
KSVS 131010Z 25016KT M01/M04 A3007 RMK A01 T10091043  RH  078%=      5-min Rain = 0
KSVS 131015Z 26016KT M01/M04 A3007 RMK A01 T10081043  RH  078%=      5-min Rain = 0
KSVS 131020Z 25017KT M01/M04 A3007 RMK A01 T10081043  RH  077%=      5-min Rain = 0
KSVS 131025Z 25017KT M01/M04 A3006 RMK A01 T10061043  RH  076%=      5-min Rain = 0
KSVS 131030Z 26017KT M01/M04 A3006 RMK A01 T10061044  RH  076%=      5-min Rain = 0
KSVS 131035Z 26017KT M01/M04 A3006 RMK A01 T10071043  RH  077%=      5-min Rain = 0
KSVS 131040Z 26016KT M01/M04 A3006 RMK A01 T10071044  RH  077%=      5-min Rain = 0
KSVS 131045Z 26016KT M01/M04 A3006 RMK A01 T10091044  RH  077%=      5-min Rain = 0
KSVS 131050Z 25014KT M01/M05 A3006 RMK A01 T10121046  RH  078%=      5-min Rain = 0
KSVS 131055Z 25013KT M02/M05 A3006 RMK A01 T10161047  RH  080%=      5-min Rain = 0
KSVS 131100Z 25012KT M02/M05 A3006 RMK A01 T10181048  RH  080%=      5-min Rain = 0
KSVS 131105Z 25014KT M02/M05 A3006 RMK A01 T10181048  RH  080%=      5-min Rain = 0
KSVS 131110Z 25014KT M02/M05 A3006 RMK A01 T10171048  RH  080%=      5-min Rain = 0
KSVS 131115Z 26014KT M02/M05 A3006 RMK A01 T10171048  RH  080%=      5-min Rain = 0
KSVS 131120Z 26014KT M02/M05 A3006 RMK A01 T10191049  RH  080%=      5-min Rain = 0
KSVS 131125Z 26014KT M02/M05 A3006 RMK A01 T10211050  RH  081%=      5-min Rain = 0
KSVS 131130Z 26013KT M02/M05 A3005 RMK A01 T10221050  RH  082%=      5-min Rain = 0
KSVS 131135Z 26015KT M02/M05 A3005 RMK A01 T10221050  RH  081%=      5-min Rain = 0
KSVS 131140Z 26017KT M02/M05 A3005 RMK A01 T10221050  RH  081%=      5-min Rain = 0
KSVS 131145Z 25017KT M02/M05 A3005 RMK A01 T10231051  RH  082%=      5-min Rain = 0
KSVS 131150Z 25017KT M02/M05 A3004 RMK A01 T10231051  RH  082%=      5-min Rain = 0
KSVS 131155Z 25017KT M02/M05 A3004 RMK A01 T10241051  RH  082%=      5-min Rain = 0
KSVS 131200Z 25017G22KT M02/M05 A3004 RMK A01 T10231051  RH  081%=      5-min Rain = 0
KSVS 131205Z 25017KT M02/M05 A3004 RMK A01 T10211051  RH  080%=      5-min Rain = 0
KSVS 131210Z 25016KT M02/M05 A3004 RMK A01 T10221052  RH  080%=      5-min Rain = 0
KSVS 131215Z 25016KT M02/M05 A3003 RMK A01 T10221052  RH  080%=      5-min Rain = 0
KSVS 131220Z 25016KT M02/M05 A3003 RMK A01 T10221053  RH  080%=      5-min Rain = 0
KSVS 131225Z 25016KT M02/M05 A3004 RMK A01 T10231053  RH  080%=      5-min Rain = 0
KSVS 131230Z 25016KT M02/M05 A3003 RMK A01 T10241054  RH  081%=      5-min Rain = 0
KSVS 131235Z 25016KT M03/M06 A3003 RMK A01 T10261055  RH  081%=      5-min Rain = 0
KSVS 131240Z 26017KT M03/M06 A3003 RMK A01 T10271055  RH  081%=      5-min Rain = 0
KSVS 131245Z 26017KT M03/M06 A3003 RMK A01 T10301057  RH  082%=      5-min Rain = 0
KSVS 131250Z 25016KT M03/M06 A3003 RMK A01 T10311057  RH  082%=      5-min Rain = 0
KSVS 131255Z 25016KT M03/M06 A3002 RMK A01 T10311057  RH  082%=      5-min Rain = 0
KSVS 131300Z 26015KT M03/M06 A3003 RMK A01 T10321058  RH  082%=      5-min Rain = 0
KSVS 131305Z 26014KT M03/M06 A3003 RMK A01 T10321058  RH  082%=      5-min Rain = 0
KSVS 131310Z 26014KT M03/M06 A3003 RMK A01 T10331059  RH  082%=      5-min Rain = 0
KSVS 131315Z 26014KT M03/M06 A3003 RMK A01 T10341060  RH  083%=      5-min Rain = 0
KSVS 131320Z 26013KT M04/M06 A3003 RMK A01 T10351060  RH  083%=      5-min Rain = 0
KSVS 131325Z 27013KT M04/M06 A3003 RMK A01 T10361060  RH  083%=      5-min Rain = 0
KSVS 131330Z 27014KT M04/M06 A3003 RMK A01 T10351060  RH  083%=      5-min Rain = 0
KSVS 131335Z 27016KT M04/M06 A3004 RMK A01 T10361061  RH  083%=      5-min Rain = 0
KSVS 131340Z 27017KT M04/M06 A3003 RMK A01 T10351060  RH  083%=      5-min Rain = 0
KSVS 131345Z 26018KT M04/M06 A3003 RMK A01 T10351060  RH  083%=      5-min Rain = 0
KSVS 131350Z 26018KT M04/M06 A3002 RMK A01 T10351060  RH  083%=      5-min Rain = 0
KSVS 131355Z 26018KT M03/M06 A3002 RMK A01 T10341060  RH  082%=      5-min Rain = 0
KSVS 131400Z 26018KT M04/M06 A3002 RMK A01 T10351061  RH  082%=      5-min Rain = 0
KSVS 131405Z 26018KT M04/M06 A3002 RMK A01 T10351060  RH  083%=      5-min Rain = 0
KSVS 131410Z 26017KT M04/M06 A3001 RMK A01 T10351060  RH  083%=      5-min Rain = 0
KSVS 131415Z 26017KT M03/M06 A3001 RMK A01 T10341060  RH  083%=      5-min Rain = 0
KSVS 131420Z 26017KT M03/M06 A3001 RMK A01 T10331059  RH  082%=      5-min Rain = 0
KSVS 131425Z 26016KT M03/M06 A30 RMK A01 T10311057  RH  082%=      5-min Rain = 0
KSVS 131430Z 26016KT M03/M06 A30 RMK A01 T10291056  RH  082%=      5-min Rain = 0
KSVS 131435Z 26016KT M03/M06 A30 RMK A01 T10281056  RH  082%=      5-min Rain = 0
KSVS 131440Z 26017KT M03/M05 A30 RMK A01 T10271054  RH  082%=      5-min Rain = 0
KSVS 131445Z 26017KT M03/M05 A30 RMK A01 T10261053  RH  082%=      5-min Rain = 0
KSVS 131450Z 26017KT M02/M05 A30 RMK A01 T10231051  RH  081%=      5-min Rain = 0
KSVS 131455Z 26018KT M02/M05 A30 RMK A01 T10231051  RH  081%=      5-min Rain = 0
KSVS 131500Z 26018KT M02/M05 A30 RMK A01 T10241052  RH  082%=      5-min Rain = 0
KSVS 131505Z 26018KT M02/M05 A30 RMK A01 T10231050  RH  082%=      5-min Rain = 0
KSVS 131510Z 26018KT M02/M05 A30 RMK A01 T10221049  RH  082%=      5-min Rain = 0
KSVS 131515Z 26018KT M02/M05 A3001 RMK A01 T10211048  RH  082%=      5-min Rain = 0
KSVS 131520Z 26017KT M02/M05 A3001 RMK A01 T10191047  RH  082%=      5-min Rain = 0
KSVS 131525Z 26017KT M02/M05 A3001 RMK A01 T10171045  RH  082%=      5-min Rain = 0
KSVS 131530Z 26018KT M02/M04 A3001 RMK A01 T10151044  RH  081%=      5-min Rain = 0
KSVS 131535Z 26019KT M01/M04 A3001 RMK A01 T10131043  RH  081%=      5-min Rain = 0
KSVS 131540Z 26019KT M01/M04 A3001 RMK A01 T10101041  RH  080%=      5-min Rain = 0
KSVS 131545Z 26018KT M01/M04 A3001 RMK A01 T10081039  RH  080%=      5-min Rain = 0
KSVS 131550Z 26019KT M01/M04 A3001 RMK A01 T10061039  RH  079%=      5-min Rain = 0
KSVS 131555Z 26019KT M01/M04 A30 RMK A01 T10051039  RH  078%=      5-min Rain = 0
KSVS 131600Z 26018KT M01/M04 A30 RMK A01 T10051040  RH  077%=      5-min Rain = 0
KSVS 131605Z 26016KT M00/M04 A30 RMK A01 T10031039  RH  077%=      5-min Rain = 0
KSVS 131610Z 26016KT 00/M03 A30 RMK A01 T00041034  RH  076%=      5-min Rain = 0
KSVS 131615Z 25015KT 01/M03 A30 RMK A01 T00121029  RH  075%=      5-min Rain = 0
KSVS 131620Z 26016KT 02/M03 A30 RMK A01 T00211025  RH  072%=      5-min Rain = 0
KSVS 131625Z 26017KT 02/M03 A3001 RMK A01 T00231026  RH  071%=      5-min Rain = 0
KSVS 131630Z 26016KT 03/M02 A3001 RMK A01 T00261020  RH  072%=      5-min Rain = 0
KSVS 131635Z 26018KT 03/M02 A3001 RMK A01 T00251023  RH  071%=      5-min Rain = 0
KSVS 131640Z 26018KT 02/M02 A3001 RMK A01 T00241021  RH  072%=      5-min Rain = 0
KSVS 131645Z 25018KT 02/M02 A3001 RMK A01 T00241022  RH  072%=      5-min Rain = 0
KSVS 131650Z 25018KT 03/M02 A3001 RMK A01 T00271021  RH  071%=      5-min Rain = 0
KSVS 131655Z 25019KT 03/M02 A30 RMK A01 T00341019  RH  069%=      5-min Rain = 0
KSVS 131700Z 25020KT 04/M02 A30 RMK A01 T00391020  RH  066%=      5-min Rain = 0
KSVS 131705Z 26019KT 04/M02 A3001 RMK A01 T00401019  RH  066%=      5-min Rain = 0
KSVS 131710Z 26019KT 04/M02 A3001 RMK A01 T00411019  RH  065%=      5-min Rain = 0
KSVS 131715Z 26020KT 04/M02 A3001 RMK A01 T00441019  RH  064%=      5-min Rain = 0
KSVS 131720Z 26020KT 05/M02 A3001 RMK A01 T00491016  RH  063%=      5-min Rain = 0
KSVS 131725Z 26019KT 05/M01 A30 RMK A01 T00541012  RH  063%=      5-min Rain = 0
KSVS 131730Z 26019KT 06/M01 A30 RMK A01 T00571014  RH  061%=      5-min Rain = 0
KSVS 131735Z 26019KT 06/M02 A30 RMK A01 T00571016  RH  060%=      5-min Rain = 0
KSVS 131740Z 26020KT 05/M02 A2999 RMK A01 T00541018  RH  060%=      5-min Rain = 0
KSVS 131745Z 26017G22KT 06/M01 A2999 RMK A01 T00621010  RH  061%=      5-min Rain = 0
KSVS 131750Z 26017G22KT 07/M01 A2999 RMK A01 T00691006  RH  060%=      5-min Rain = 0
KSVS 131755Z 26019KT 07/M01 A2998 RMK A01 T00691010  RH  057%=      5-min Rain = 0
KSVS 131800Z 26017G24KT 07/M01 A2998 RMK A01 T00741005  RH  058%=      5-min Rain = 0
KSVS 131805Z 26019KT 07/M01 A2997 RMK A01 T00741011  RH  055%=      5-min Rain = 0
KSVS 131810Z 26017KT 08/M01 A2997 RMK A01 T00761008  RH  056%=      5-min Rain = 0
KSVS 131815Z 26019KT 08/M01 A2996 RMK A01 T00771011  RH  054%=      5-min Rain = 0
KSVS 131820Z 26018KT 08/M01 A2996 RMK A01 T00801010  RH  054%=      5-min Rain = 0
KSVS 131825Z 26017KT 08/M01 A2996 RMK A01 T00841008  RH  053%=      5-min Rain = 0
KSVS 131830Z 26017KT 09/M01 A2995 RMK A01 T00861006  RH  053%=      5-min Rain = 0
KSVS 131835Z 26019KT 09/M01 A2996 RMK A01 T00911005  RH  052%=      5-min Rain = 0
KSVS 131840Z 26017G22KT 10/M00 A2996 RMK A01 T00961002  RH  051%=      5-min Rain = 0
KSVS 131845Z 26017KT 10/M00 A2995 RMK A01 T00981004  RH  049%=      5-min Rain = 0
KSVS 131850Z 26017KT 10/M01 A2994 RMK A01 T01001007  RH  048%=      5-min Rain = 0
KSVS 131855Z 25016KT 10/M01 A2993 RMK A01 T01021010  RH  046%=      5-min Rain = 0
KSVS 131900Z 25015KT 11/M01 A2992 RMK A01 T01051009  RH  045%=      5-min Rain = 0
KSVS 131905Z 24014KT 11/M01 A2992 RMK A01 T01121008  RH  044%=      5-min Rain = 0
KSVS 131910Z 25013KT 12/M01 A2991 RMK A01 T01171006  RH  043%=      5-min Rain = 0
KSVS 131915Z 25014KT 12/M00 A2991 RMK A01 T01181003  RH  044%=      5-min Rain = 0
KSVS 131920Z 24014KT 12/00 A2991 RMK A01 T01180000  RH  045%=      5-min Rain = 0
KSVS 131925Z 25014KT 12/M00 A2991 RMK A01 T01201002  RH  043%=      5-min Rain = 0
KSVS 131930Z 25013KT 12/M00 A299 RMK A01 T01241002  RH  043%=      5-min Rain = 0
KSVS 131935Z 25013KT 13/M01 A299 RMK A01 T01251005  RH  041%=      5-min Rain = 0
KSVS 131940Z 25013KT 12/M00 A299 RMK A01 T01241001  RH  043%=      5-min Rain = 0
KSVS 131945Z 25013KT 13/00 A2989 RMK A01 T012500-0  RH  043%=      5-min Rain = 0
KSVS 131950Z 25013KT 13/M00 A2989 RMK A01 T01271002  RH  042%=      5-min Rain = 0
KSVS 131955Z 26013KT 13/M01 A2989 RMK A01 T01281006  RH  040%=      5-min Rain = 0
KSVS 132000Z 25013KT 13/M00 A2989 RMK A01 T01291004  RH  040%=      5-min Rain = 0
KSVS 132005Z 25012KT 13/M01 A2988 RMK A01 T01331006  RH  039%=      5-min Rain = 0
KSVS 132010Z 25012KT 14/M01 A2988 RMK A01 T01351008  RH  038%=      5-min Rain = 0
KSVS 132015Z 24012KT 14/M01 A2988 RMK A01 T01371006  RH  038%=      5-min Rain = 0
KSVS 132020Z 24012KT 14/M01 A2988 RMK A01 T01361006  RH  038%=      5-min Rain = 0
KSVS 132025Z 25012KT 14/M01 A2988 RMK A01 T01351008  RH  038%=      5-min Rain = 0
KSVS 132030Z 24012KT 14/M01 A2987 RMK A01 T01371005  RH  038%=      5-min Rain = 0
KSVS 132035Z 25013KT 14/M00 A2987 RMK A01 T01361003  RH  039%=      5-min Rain = 0
KSVS 132040Z 25012KT 14/M00 A2987 RMK A01 T01391001  RH  039%=      5-min Rain = 0
KSVS 132045Z 25012KT 14/00 A2987 RMK A01 T01380001  RH  039%=      5-min Rain = 0
KSVS 132050Z 25012KT 14/00 A2987 RMK A01 T01390002  RH  040%=      5-min Rain = 0
KSVS 132055Z 27012KT 14/00 A2987 RMK A01 T014400-0  RH  038%=      5-min Rain = 0
KSVS 132100Z 27012KT 14/M00 A2987 RMK A01 T01441003  RH  037%=      5-min Rain = 0
KSVS 132105Z 27012KT 14/M00 A2987 RMK A01 T01431002  RH  037%=      5-min Rain = 0
KSVS 132110Z 26012KT 14/00 A2987 RMK A01 T01440002  RH  038%=      5-min Rain = 0
KSVS 132115Z 26011KT 15/00 A2987 RMK A01 T01470002  RH  037%=      5-min Rain = 0
KSVS 132120Z 26011KT 15/00 A2987 RMK A01 T01490001  RH  037%=      5-min Rain = 0
KSVS 132125Z 27011KT 15/M00 A2987 RMK A01 T01511001  RH  036%=      5-min Rain = 0
KSVS 132130Z 27011KT 15/00 A2987 RMK A01 T015000-0  RH  036%=      5-min Rain = 0
KSVS 132135Z 26012KT 15/M00 A2987 RMK A01 T01491001  RH  036%=      5-min Rain = 0
KSVS 132140Z 27012KT 15/00 A2987 RMK A01 T01500000  RH  036%=      5-min Rain = 0
KSVS 132145Z 26011KT 15/00 A2987 RMK A01 T01480001  RH  037%=      5-min Rain = 0
KSVS 132150Z 26011KT 15/00 A2986 RMK A01 T01470003  RH  038%=      5-min Rain = 0
KSVS 132155Z 26010KT 15/01 A2986 RMK A01 T01450007  RH  039%=      5-min Rain = 0
KSVS 132200Z 27010KT 14/01 A2986 RMK A01 T01430009  RH  041%=      5-min Rain = 0
KSVS 132205Z 26011KT 14/01 A2986 RMK A01 T01410012  RH  042%=      5-min Rain = 0
KSVS 132210Z 27010KT 14/01 A2986 RMK A01 T01400014  RH  043%=      5-min Rain = 0
KSVS 132215Z 27009KT 14/02 A2986 RMK A01 T01410016  RH  043%=      5-min Rain = 0
KSVS 132220Z 27009KT 14/02 A2986 RMK A01 T01430018  RH  043%=      5-min Rain = 0
KSVS 132225Z 27009KT 15/02 A2986 RMK A01 T01450015  RH  042%=      5-min Rain = 0
KSVS 132230Z 27009KT 15/02 A2986 RMK A01 T01480017  RH  042%=      5-min Rain = 0
KSVS 132235Z 27010KT 15/02 A2986 RMK A01 T01500016  RH  041%=      5-min Rain = 0
KSVS 132240Z 27009KT 15/02 A2986 RMK A01 T01530016  RH  040%=      5-min Rain = 0
KSVS 132245Z 26008KT 16/02 A2985 RMK A01 T01550016  RH  040%=      5-min Rain = 0
KSVS 132250Z 27010KT 16/01 A2985 RMK A01 T01550012  RH  038%=      5-min Rain = 0
KSVS 132255Z 26009KT 15/02 A2985 RMK A01 T01500015  RH  040%=      5-min Rain = 0
KSVS 132300Z 26009KT 15/02 A2985 RMK A01 T01480017  RH  042%=      5-min Rain = 0
KSVS 132305Z 26008KT 15/02 A2985 RMK A01 T01480020  RH  043%=      5-min Rain = 0
KSVS 132310Z 26008KT 14/02 A2984 RMK A01 T01430021  RH  044%=      5-min Rain = 0
KSVS 132315Z 26007KT 14/02 A2985 RMK A01 T01400024  RH  046%=      5-min Rain = 0
KSVS 132320Z 25007KT 13/02 A2984 RMK A01 T01330024  RH  048%=      5-min Rain = 0
KSVS 132325Z 25006KT 13/02 A2984 RMK A01 T01270023  RH  050%=      5-min Rain = 0
KSVS 132330Z 24006KT 12/02 A2984 RMK A01 T01220022  RH  051%=      5-min Rain = 0
KSVS 132335Z 23005KT 12/02 A2984 RMK A01 T01160019  RH  052%=      5-min Rain = 0
KSVS 132340Z 23005KT 11/02 A2984 RMK A01 T01140019  RH  053%=      5-min Rain = 0
KSVS 132345Z 24005KT 11/02 A2984 RMK A01 T01140020  RH  053%=      5-min Rain = 0
KSVS 132350Z 25007KT 11/02 A2985 RMK A01 T01060018  RH  055%=      5-min Rain = 0
KSVS 132355Z 25008KT 10/02 A2985 RMK A01 T00950017  RH  059%=      5-min Rain = 0
KSVS 140000Z 26008KT 08/02 A2985 RMK A01 T00840015  RH  063%=      5-min Rain = 0
KSVS 140005Z 26009KT 08/02 A2985 RMK A01 T00790015  RH  065%=      5-min Rain = 0
KSVS 140010Z 27009KT 08/02 A2986 RMK A01 T00770016  RH  066%=      5-min Rain = 0
KSVS 140015Z 27008KT 08/02 A2986 RMK A01 T00750016  RH  067%=      5-min Rain = 0
KSVS 140020Z 26007KT 07/02 A2986 RMK A01 T00740016  RH  067%=      5-min Rain = 0
KSVS 140025Z 26007KT 07/01 A2986 RMK A01 T00670012  RH  069%=      5-min Rain = 0
KSVS 140030Z 25007KT 06/01 A2986 RMK A01 T00600013  RH  073%=      5-min Rain = 0
KSVS 140035Z 25006KT 06/02 A2986 RMK A01 T00620015  RH  073%=      5-min Rain = 0
KSVS 140040Z 25009KT 06/01 A2986 RMK A01 T00560008  RH  072%=      5-min Rain = 0
KSVS 140045Z 24011KT 05/01 A2986 RMK A01 T00540013  RH  076%=      5-min Rain = 0
KSVS 140050Z 24011KT 07/02 A2986 RMK A01 T00670017  RH  072%=      5-min Rain = 0
KSVS 140055Z 24011KT 07/02 A2986 RMK A01 T00720018  RH  069%=      5-min Rain = 0
KSVS 140100Z 24011KT 07/02 A2985 RMK A01 T00690016  RH  070%=      5-min Rain = 0
KSVS 140105Z 24011KT 07/02 A2985 RMK A01 T00650015  RH  072%=      5-min Rain = 0
KSVS 140110Z 24012KT 07/02 A2985 RMK A01 T00650015  RH  072%=      5-min Rain = 0
KSVS 140115Z 24011KT 06/02 A2985 RMK A01 T00640015  RH  072%=      5-min Rain = 0
KSVS 140120Z 24011KT 06/01 A2985 RMK A01 T00560012  RH  074%=      5-min Rain = 0
KSVS 140125Z 24010KT 05/01 A2985 RMK A01 T00470008  RH  077%=      5-min Rain = 0
KSVS 140130Z 24010KT 04/01 A2985 RMK A01 T00410007  RH  079%=      5-min Rain = 0
KSVS 140135Z 23009KT 04/01 A2984 RMK A01 T00400006  RH  080%=      5-min Rain = 0
KSVS 140140Z 23009KT 04/01 A2984 RMK A01 T00380006  RH  081%=      5-min Rain = 0
KSVS 140145Z 23010KT 04/01 A2984 RMK A01 T00430009  RH  079%=      5-min Rain = 0
KSVS 140150Z 24010KT 05/01 A2984 RMK A01 T00500011  RH  077%=      5-min Rain = 0
KSVS 140155Z 24011KT 06/01 A2983 RMK A01 T00560011  RH  074%=      5-min Rain = 0
KSVS 140200Z 23011KT 05/01 A2983 RMK A01 T00540009  RH  074%=      5-min Rain = 0
KSVS 140205Z 23010KT 05/01 A2983 RMK A01 T00500007  RH  074%=      5-min Rain = 0
KSVS 140210Z 23010KT 05/01 A2983 RMK A01 T00470006  RH  075%=      5-min Rain = 0
KSVS 140215Z 23010KT 05/01 A2983 RMK A01 T00490006  RH  075%=      5-min Rain = 0
KSVS 140220Z 24009KT 05/01 A2983 RMK A01 T00470005  RH  075%=      5-min Rain = 0
KSVS 140225Z 24010KT 04/00 A2983 RMK A01 T00440003  RH  076%=      5-min Rain = 0
KSVS 140230Z 24012KT 05/01 A2983 RMK A01 T00480005  RH  075%=      5-min Rain = 0
KSVS 140235Z 25010KT 05/01 A2983 RMK A01 T00520005  RH  073%=      5-min Rain = 0
KSVS 140240Z 25009KT 05/00 A2984 RMK A01 T00500004  RH  073%=      5-min Rain = 0
KSVS 140245Z 25009KT 05/00 A2983 RMK A01 T00500004  RH  073%=      5-min Rain = 0
KSVS 140250Z 26009KT 05/00 A2983 RMK A01 T00520004  RH  072%=      5-min Rain = 0
KSVS 140255Z 26009KT 05/00 A2983 RMK A01 T00510003  RH  072%=      5-min Rain = 0
KSVS 140300Z 26010KT 05/00 A2983 RMK A01 T00520003  RH  072%=      5-min Rain = 0
KSVS 140305Z 26011KT 06/00 A2983 RMK A01 T00550003  RH  070%=      5-min Rain = 0
KSVS 140310Z 26010KT 05/00 A2983 RMK A01 T00540003  RH  070%=      5-min Rain = 0
KSVS 140315Z 27009KT 05/00 A2983 RMK A01 T00490002  RH  072%=      5-min Rain = 0
KSVS 140320Z 26008KT 04/00 A2983 RMK A01 T00430001  RH  075%=      5-min Rain = 0
KSVS 140325Z 27008KT 04/M00 A2983 RMK A01 T00371001  RH  077%=      5-min Rain = 0
KSVS 140330Z 27009KT 04/M00 A2982 RMK A01 T00361001  RH  078%=      5-min Rain = 0
KSVS 140335Z 28010KT 04/00 A2982 RMK A01 T00420003  RH  077%=      5-min Rain = 0
KSVS 140340Z 28011KT 05/01 A2982 RMK A01 T00470006  RH  076%=      5-min Rain = 0
KSVS 140345Z 28011KT 05/01 A2983 RMK A01 T00450005  RH  076%=      5-min Rain = 0
KSVS 140350Z 28010KT 04/01 A2983 RMK A01 T00440005  RH  076%=      5-min Rain = 0
KSVS 140355Z 28010KT 04/01 A2983 RMK A01 T00440005  RH  076%=      5-min Rain = 0
KSVS 140400Z 28009KT 04/00 A2983 RMK A01 T00430004  RH  077%=      5-min Rain = 0
KSVS 140405Z 26009KT 04/00 A2983 RMK A01 T00390003  RH  078%=      5-min Rain = 0
KSVS 140410Z 27009KT 04/00 A2983 RMK A01 T00350002  RH  080%=      5-min Rain = 0
KSVS 140415Z 27009KT 03/00 A2983 RMK A01 T00330001  RH  081%=      5-min Rain = 0
KSVS 140420Z 27009KT 03/00 A2983 RMK A01 T00300000  RH  082%=      5-min Rain = 0
KSVS 140425Z 28009KT 03/00 A2982 RMK A01 T002900-0  RH  082%=      5-min Rain = 0
KSVS 140430Z 28008KT 03/00 A2982 RMK A01 T003000-0  RH  081%=      5-min Rain = 0
KSVS 140435Z 28007KT 03/M00 A2982 RMK A01 T00301001  RH  081%=      5-min Rain = 0
KSVS 140440Z 28006KT 03/M00 A2981 RMK A01 T00291002  RH  081%=      5-min Rain = 0
KSVS 140445Z 27005KT 03/M00 A2981 RMK A01 T00261004  RH  082%=      5-min Rain = 0
KSVS 140450Z 25006KT 02/M01 A2981 RMK A01 T00211007  RH  083%=      5-min Rain = 0
KSVS 140455Z 24006KT 02/M01 A2981 RMK A01 T00171008  RH  084%=      5-min Rain = 0
KSVS 140500Z 25006KT 02/M01 A2981 RMK A01 T00151009  RH  085%=      5-min Rain = 0
KSVS 140505Z 27006KT 02/M01 A298 RMK A01 T00191007  RH  084%=      5-min Rain = 0
KSVS 140510Z 27007KT 02/M01 A298 RMK A01 T00211005  RH  084%=      5-min Rain = 0
KSVS 140515Z 26008KT 02/M00 A2981 RMK A01 T00231003  RH  083%=      5-min Rain = 0
KSVS 140520Z 26008KT 03/M00 A298 RMK A01 T00291001  RH  081%=      5-min Rain = 0
KSVS 140525Z 28009KT 03/M00 A2981 RMK A01 T00321001  RH  080%=      5-min Rain = 0
KSVS 140530Z 29011KT 03/M00 A2981 RMK A01 T00301002  RH  081%=      5-min Rain = 0
KSVS 140535Z 28009KT 03/M00 A2981 RMK A01 T00281002  RH  082%=      5-min Rain = 0
KSVS 140540Z 28008KT 03/M00 A2981 RMK A01 T00281002  RH  082%=      5-min Rain = 0
KSVS 140545Z 28007KT 03/M00 A2981 RMK A01 T00291002  RH  081%=      5-min Rain = 0
KSVS 140550Z 27007KT 03/M00 A298 RMK A01 T00311002  RH  080%=      5-min Rain = 0
KSVS 140555Z 27010KT 03/M00 A298 RMK A01 T00341001  RH  079%=      5-min Rain = 0

Page generated in 0.0152 seconds.